Flight Track Log - Related Links

Times and Time Zones

All times are in EDT time to prevent confusion due to time zone crossing. See the OPT429 flight status page for this flight to view local times or setup timezone preferences in your user account.

Time Position Orientation Groundspeed Altitude Reporting Facility
EDT Latitude Longitude Course Direction KTS MPH feet Rate Location/Type
Thu 04:52:28 PM 39.7167 -86.3000 38° Northeast 158 182 1,500  Level Indianapolis TRACON
Thu 04:53:16 PM 39.7500 -86.2667 33° Northeast 205 236 4,000 2,378 Climbing Indianapolis TRACON
Thu 04:54:19 PM 39.7925 -86.3069 324° Northwest 258 297 5,900 2,256 Climbing Indianapolis Center
Thu 04:55:21 PM 39.7453 -86.3981 236° Southwest 272 313 8,700 2,631 Climbing Indianapolis Center
Thu 04:57:26 PM 39.6661 -86.5658 232° Southwest 271 312 14,100 2,374 Climbing Indianapolis Center
Thu 04:58:28 PM 39.6386 -86.6672 251° West 288 331 16,100 1,887 Climbing Indianapolis Center
Thu 04:59:30 PM 39.6108 -86.7753 252° West 308 354 18,000 2,129 Climbing Indianapolis Center
Thu 05:00:32 PM 39.5764 -86.9103 252° West 325 374 20,500 2,177 Climbing Indianapolis Center
Thu 05:01:34 PM 39.5550 -87.0294 257° West 334 384 22,500 1,966 Climbing Indianapolis Center
Thu 05:03:29 PM 39.5122 -87.2606 257° West 345 397 26,300 2,023 Climbing Kansas City Center
Thu 05:04:29 PM 39.4889 -87.3861 256° West 353 406 28,400 1,984 Climbing Kansas City Center
Thu 05:05:33 PM 39.4650 -87.5128 256° West 359 413 30,400 1,956 Climbing Kansas City Center
Thu 05:06:44 PM 39.4025 -87.6600 241° Southwest 365 420 32,800 1,686 Climbing Indianapolis Center
Thu 05:08:38 PM 39.2875 -87.8692 226° Southwest 371 427 35,600 1,422 Climbing Kansas City Center
Thu 05:10:53 PM 39.1578 -88.1047 231° Southwest 369 425 38,700 1,348 Climbing Indianapolis Center
Thu 05:11:45 PM 39.1111 -88.1892 235° Southwest 368 423 39,800 1,274 Climbing Kansas City Center
Thu 05:12:46 PM 39.0556 -88.2864 234° Southwest 357 411 41,100 816 Climbing Kansas City Center
Thu 05:13:50 PM 39.0039 -88.3792 234° Southwest 339 390 41,500 336 Climbing Kansas City Center
Thu 05:14:51 PM 38.9394 -88.4942 234° Southwest 334 384 41,800 288 Climbing Kansas City Center
Thu 05:15:55 PM 38.8836 -88.5944 234° Southwest 337 388 42,100 339 Climbing Kansas City Center
Thu 05:16:55 PM 38.8267 -88.6933 234° Southwest 348 400 42,500 387 Climbing Kansas City Center
Thu 05:17:59 PM 38.7703 -88.7931 234° Southwest 348 400 42,900 156 Climbing Kansas City Center
Thu 05:20:07 PM 38.6431 -89.0172 234° Southwest 363 418 43,000 32 Climbing Memphis Center
Thu 05:21:09 PM 38.5683 -89.1478 234° Southwest 374 430 43,000  Level Memphis Center
Thu 05:22:16 PM 38.5008 -89.2667 234° Southwest 384 442 43,000  Level Indianapolis Center
Thu 05:23:18 PM 38.4344 -89.3817 234° Southwest 396 456 43,000  Level Indianapolis Center
Thu 05:24:11 PM 38.3803 -89.4717 233° Southwest 401 461 43,000  Level Kansas City Center
Thu 05:26:20 PM 38.2331 -89.7250 234° Southwest 413 475 43,000  Level Memphis Center
Thu 05:27:22 PM 38.1492 -89.8700 234° Southwest 420 483 43,000  Level Memphis Center
Thu 05:29:26 PM 38.0078 -90.1117 233° Southwest 426 490 43,000  Level Memphis Center
Thu 05:30:28 PM 37.9356 -90.2319 233° Southwest 426 490 43,000  Level Memphis Center
Thu 05:31:23 PM 37.8697 -90.3406 233° Southwest 430 495 43,000  Level Kansas City Center
Thu 05:32:27 PM 37.7981 -90.4592 233° Southwest 428 493 43,000  Level Kansas City Center
Thu 05:33:28 PM 37.7272 -90.5781 233° Southwest 426 490 43,000  Level Kansas City Center
Thu 05:34:31 PM 37.6408 -90.7203 233° Southwest 426 490 43,000  Level Kansas City Center
Thu 05:36:41 PM 37.4911 -90.9719 233° Southwest 425 489 43,000  Level Memphis Center
Thu 05:37:43 PM 37.4178 -91.0917 232° Southwest 425 489 43,000  Level Memphis Center
Thu 05:38:38 PM 37.3439 -91.2133 233° Southwest 426 490 43,000  Level Kansas City Center
Thu 05:39:42 PM 37.2725 -91.3306 233° Southwest 426 490 43,000  Level Kansas City Center
Thu 05:40:43 PM 37.2042 -91.4431 233° Southwest 410 472 43,000  Level Kansas City Center
Thu 05:41:46 PM 37.1344 -91.5553 232° Southwest 409 471 43,000  Level Kansas City Center
Thu 05:42:47 PM 37.0669 -91.6639 232° Southwest 399 459 43,000  Level Kansas City Center
Thu 05:43:48 PM 37.0006 -91.7733 233° Southwest 395 455 43,000  Level Kansas City Center
Thu 05:44:51 PM 36.9306 -91.8878 233° Southwest 403 464 43,000  Level Kansas City Center
Thu 05:45:52 PM 36.8475 -92.0203 232° Southwest 403 464 43,000  Level Kansas City Center
Thu 05:46:57 PM 36.7786 -92.1297 232° Southwest 403 464 43,000  Level Kansas City Center
Thu 05:47:57 PM 36.7100 -92.2400 232° Southwest 402 463 43,000  Level Kansas City Center
Thu 05:49:06 PM 36.6267 -92.3656 230° Southwest 400 460 43,000  Level Memphis Center
Thu 05:50:08 PM 36.5572 -92.4756 232° Southwest 400 460 43,000  Level Memphis Center
Thu 05:51:10 PM 36.4872 -92.5842 231° Southwest 400 460 43,000  Level Memphis Center
Thu 05:53:07 PM 36.3544 -92.7958 232° Southwest 402 463 43,000  Level Kansas City Center
Thu 05:54:11 PM 36.2847 -92.9036 231° Southwest 403 464 43,000  Level Kansas City Center
Thu 05:55:12 PM 36.2142 -93.0117 231° Southwest 403 464 43,000  Level Kansas City Center
Thu 05:56:13 PM 36.1444 -93.1225 232° Southwest 404 465 43,000  Level Kansas City Center
Thu 05:57:16 PM 36.0583 -93.2547 231° Southwest 409 471 43,000  Level Kansas City Center
Thu 05:58:25 PM 35.9747 -93.3850 232° Southwest 407 468 43,000  Level Memphis Center
Thu 05:59:27 PM 35.9044 -93.4933 231° Southwest 407 468 43,000  Level Memphis Center
Thu 06:01:24 PM 35.7628 -93.7094 231° Southwest 408 470 43,000  Level Fort Worth Center
Thu 06:02:26 PM 35.6911 -93.8161 230° Southwest 407 468 43,000  Level Fort Worth Center
Thu 06:03:28 PM 35.6097 -93.9208 226° Southwest 414 476 43,000  Level Fort Worth Center
Thu 06:04:30 PM 35.5261 -94.0169 223° Southwest 413 475 43,000  Level Fort Worth Center
Thu 06:05:39 PM 35.4281 -94.1300 223° Southwest 413 475 43,000  Level Memphis Center
Thu 06:06:41 PM 35.3403 -94.2300 223° Southwest 413 475 43,000  Level Memphis Center
Thu 06:07:43 PM 35.2561 -94.3258 223° Southwest 412 474 43,000  Level Memphis Center
Thu 06:08:46 PM 35.1775 -94.4161 223° Southwest 412 474 43,000  Level Memphis Center
Thu 06:09:48 PM 35.0775 -94.5289 223° Southwest 412 474 43,000  Level Memphis Center
Thu 06:10:50 PM 34.9936 -94.6225 222° Southwest 412 474 43,000  Level Memphis Center
Thu 06:11:52 PM 34.9050 -94.7258 224° Southwest 411 473 43,000  Level Memphis Center
Thu 06:12:47 PM 34.8319 -94.8075 223° Southwest 409 471 43,000  Level Fort Worth Center
Thu 06:13:49 PM 34.7486 -94.9022 223° Southwest 408 470 43,000 -144 Level Fort Worth Center
Thu 06:14:52 PM 34.6631 -94.9975 223° Southwest 415 478 42,700 -480 Descending Fort Worth Center
Thu 06:15:54 PM 34.5761 -95.0953 223° Southwest 424 488 42,000 -823 Descending Fort Worth Center
Thu 06:16:56 PM 34.4886 -95.1931 223° Southwest 426 490 41,000 -1,161 Descending Fort Worth Center
Thu 06:17:58 PM 34.3842 -95.3089 222° Southwest 426 490 39,600 -1,306 Descending Fort Worth Center
Thu 06:19:00 PM 34.2953 -95.4078 223° Southwest 432 497 38,300 -1,355 Descending Fort Worth Center
Thu 06:21:04 PM 34.1103 -95.6086 222° Southwest 419 482 35,400 -1,861 Descending Fort Worth Center
Thu 06:22:07 PM 34.0294 -95.7000 223° Southwest 419 482 32,500 -2,736 Descending Fort Worth Center
Thu 06:23:09 PM 33.9486 -95.7875 222° Southwest 395 455 29,700 -2,661 Descending Fort Worth Center
Thu 06:24:11 PM 33.8706 -95.8717 222° Southwest 380 437 27,000 -3,000 Descending Fort Worth Center
Thu 06:25:13 PM 33.7761 -95.9764 223° Southwest 382 440 23,500 -3,000 Descending Fort Worth Center
Thu 06:27:17 PM 33.6097 -96.1550 222° Southwest 386 444 17,700 -2,677 Descending Fort Worth Center
Thu 06:28:19 PM 33.5314 -96.2386 222° Southwest 381 438 15,200 -2,371 Descending Fort Worth Center
Thu 06:29:21 PM 33.4558 -96.3317 226° Southwest 363 418 12,800 -1,508 Descending Fort Worth Center
Thu 06:31:26 PM 33.3297 -96.4822 225° Southwest 299 344 10,500 -1,091 Descending Fort Worth Center
Thu 06:32:28 PM 33.2817 -96.5464 228° Southwest 259 298 9,400 -1,113 Descending Fort Worth Center
Thu 06:33:30 PM 33.2400 -96.6286 239° Southwest 270 311 8,200 -1,161 Descending Fort Worth Center
Thu 06:34:32 PM 33.1994 -96.7047 238° Southwest 273 314 7,000 -1,032 Descending Fort Worth Center
Thu 06:36:36 PM 33.1269 -96.8444 238° Southwest 240 276 5,000 -839 Descending Fort Worth Center
Thu 06:37:38 PM 33.0911 -96.9161 239° Southwest 250 288 4,400 -816 Descending Fort Worth Center
Thu 06:38:41 PM 33.0461 -96.9789 229° Southwest 232 267 3,300 -1,008 Descending Fort Worth Center
Thu 06:39:43 PM 32.9922 -97.0083 205° Southwest 214 246 2,300 -871 Descending Fort Worth Center
Thu 06:40:45 PM 32.9378 -97.0103 182° South 180 207 1,500 -774 Descending Fort Worth Center
Thu 06:41:47 PM 32.9053 -97.0103 180° South 121 139 700 -774 Descending Fort Worth Center
Thu 06:43:00 PM 32.8833 -97.0333 232° Southwest  Level FlightAware Approximate
Thu 06:50:00 PM 32.8968 -97.0380 232° Southwest  Level Estimated
Thu 06:51:00 PM 32.8968 -97.0380 232° Southwest  Level Estimated
Thu 06:52:00 PM 32.8968 -97.0380 232° Southwest  Level Estimated
Thu 06:53:00 PM 32.8968 -97.0380 232° Southwest  Level Estimated
Thu 06:54:00 PM 32.8968 -97.0380 232° Southwest  Level Estimated
Thu 06:55:00 PM 32.8968 -97.0380 232° Southwest  Level Estimated
Thu 06:56:00 PM 32.8968 -97.0380 232° Southwest  Level Estimated
Thu 06:57:00 PM 32.8968 -97.0380 232° Southwest  Level Estimated

Login

Don't have an account? Register now (free) for customized features, flight alerts, and more!